Time;durP1;ratioP1;P1;durP2;ratioP2;P2;SDS_P1;SDS_P2;PMS_P1;PMS_P2;Temp;Humidity;BMP_temperature;BMP_pressure;BME280_temperature;BME280_humidity;BME280_pressure;Samples;Min_cycle;Max_cycle;Signal;HPM_P1;HPM_P2
2022/09/22 00:00:53;;;;;;;;;;;13.50;58.70;;;;;;5136483;27;19997;-71
2022/09/22 00:03:19;;;;;;;;;;;13.40;58.70;;;;;;5155040;27;19903;-71
2022/09/22 00:05:45;;;;;;;;;;;13.30;58.70;;;;;;5154994;27;19964;-71
2022/09/22 00:08:10;;;;;;;;;;;13.30;58.80;;;;;;5155005;27;19903;-71
2022/09/22 00:10:36;;;;;;;;;;;13.20;58.90;;;;;;5149735;27;20389;-71
2022/09/22 00:13:02;;;;;;;;;;;13.10;59.10;;;;;;5136453;27;19903;-71
2022/09/22 00:15:29;;;;;;;;;;;13.10;59.40;;;;;;5136399;27;19938;-71
2022/09/22 00:17:55;;;;;;;;;;;13.00;59.40;;;;;;5147438;27;20277;-71
2022/09/22 00:20:20;;;;;;;;;;;13.00;59.50;;;;;;5134043;27;19911;-71
2022/09/22 00:22:49;;;;;;;;;;;12.90;59.50;;;;;;5115598;28;19904;-71
2022/09/22 00:25:15;;;;;;;;;;;12.90;59.50;;;;;;5134017;28;20254;-71
2022/09/22 00:27:42;;;;;;;;;;;12.90;59.60;;;;;;5133878;27;19903;-71
2022/09/22 00:30:07;;;;;;;;;;;12.90;59.70;;;;;;5133987;28;19904;-71
2022/09/22 00:32:33;;;;;;;;;;;12.90;59.90;;;;;;5133674;28;19918;-71
2022/09/22 00:34:59;;;;;;;;;;;12.90;60.00;;;;;;5132705;27;19918;-71
2022/09/22 00:37:24;;;;;;;;;;;12.90;60.00;;;;;;5135918;27;19999;-71
2022/09/22 00:39:52;;;;;;;;;;;12.90;60.10;;;;;;5154664;27;19910;-71
2022/09/22 00:42:18;;;;;;;;;;;12.90;60.40;;;;;;5154588;27;20366;-71
2022/09/22 00:44:44;;;;;;;;;;;12.90;60.70;;;;;;5134987;27;19907;-71
2022/09/22 00:47:13;;;;;;;;;;;12.90;60.80;;;;;;5115382;28;19906;-71
2022/09/22 00:49:41;;;;;;;;;;;12.90;60.90;;;;;;5133804;28;19903;-71
2022/09/22 00:52:07;;;;;;;;;;;12.90;60.80;;;;;;5133804;28;19900;-71
2022/09/22 00:54:33;;;;;;;;;;;12.90;60.60;;;;;;5133814;28;19990;-71
2022/09/22 00:57:10;;;;;;;;;;;12.90;60.40;;;;;;5133700;27;19999;-71
2022/09/22 00:59:37;;;;;;;;;;;12.80;60.20;;;;;;5137834;27;19910;-71
2022/09/22 01:02:02;;;;;;;;;;;12.80;60.10;;;;;;5137801;27;19946;-71
2022/09/22 01:04:28;;;;;;;;;;;12.70;60.00;;;;;;5137709;27;19904;-71
2022/09/22 01:06:55;;;;;;;;;;;12.70;60.00;;;;;;5119836;27;19990;-71
2022/09/22 01:09:21;;;;;;;;;;;12.60;60.00;;;;;;5121761;27;19907;-71
2022/09/22 01:11:47;;;;;;;;;;;12.50;59.90;;;;;;5119136;27;20273;-71
2022/09/22 01:14:19;;;;;;;;;;;12.50;60.00;;;;;;5119157;27;19910;-71
2022/09/22 01:17:00;;;;;;;;;;;12.50;60.00;;;;;;5137439;27;19908;-71
2022/09/22 01:19:44;;;;;;;;;;;12.40;60.00;;;;;;5119009;27;19996;-71
2022/09/22 01:22:25;;;;;;;;;;;12.30;60.10;;;;;;5118907;27;19958;-71
2022/09/22 01:25:20;;;;;;;;;;;12.20;60.20;;;;;;5137325;27;19903;-71
2022/09/22 01:27:46;;;;;;;;;;;12.20;60.20;;;;;;5118984;27;19903;-71
2022/09/22 01:30:13;;;;;;;;;;;12.10;60.30;;;;;;5137204;27;19952;-71
2022/09/22 01:32:43;;;;;;;;;;;12.10;60.90;;;;;;5115026;27;19922;-71
2022/09/22 01:35:19;;;;;;;;;;;12.00;60.40;;;;;;5116586;28;19952;-71
2022/09/22 01:38:03;;;;;;;;;;;11.90;60.40;;;;;;5116468;28;19908;-71
2022/09/22 01:40:34;;;;;;;;;;;11.90;60.50;;;;;;5116471;28;19954;-71
2022/09/22 01:43:20;;;;;;;;;;;11.80;60.60;;;;;;5116439;28;19953;-71
2022/09/22 01:45:47;;;;;;;;;;;11.80;60.60;;;;;;5115826;28;19957;-71
2022/09/22 01:48:18;;;;;;;;;;;11.80;60.70;;;;;;5116271;28;19908;-71
2022/09/22 01:51:06;;;;;;;;;;;11.70;60.70;;;;;;5116347;28;19926;-71
2022/09/22 01:53:35;;;;;;;;;;;11.70;60.90;;;;;;5101471;28;19926;-71
2022/09/22 01:56:05;;;;;;;;;;;11.70;61.20;;;;;;5116128;28;19998;-71
2022/09/22 01:58:33;;;;;;;;;;;11.70;61.50;;;;;;5114656;28;19908;-70
2022/09/22 02:01:06;;;;;;;;;;;11.70;61.90;;;;;;5116010;27;19911;-71
2022/09/22 02:03:49;;;;;;;;;;;11.70;62.30;;;;;;5117008;27;19911;-71
2022/09/22 02:06:18;;;;;;;;;;;11.70;63.30;;;;;;5136610;27;19908;-71
2022/09/22 02:08:56;;;;;;;;;;;11.70;62.60;;;;;;5135999;27;19903;-72
2022/09/22 02:11:22;;;;;;;;;;;11.80;62.80;;;;;;5136445;27;19904;-72
2022/09/22 02:13:48;;;;;;;;;;;11.80;62.70;;;;;;5135070;27;19948;-71
2022/09/22 02:16:14;;;;;;;;;;;11.80;62.70;;;;;;5136415;27;19904;-70
2022/09/22 02:18:42;;;;;;;;;;;11.90;62.80;;;;;;5136223;27;19908;-71
2022/09/22 02:21:09;;;;;;;;;;;11.90;62.70;;;;;;5136312;27;19994;-71
2022/09/22 02:23:34;;;;;;;;;;;11.90;62.60;;;;;;5119849;27;19907;-71
2022/09/22 02:26:01;;;;;;;;;;;11.90;62.50;;;;;;5115557;28;20273;-71
2022/09/22 02:28:28;;;;;;;;;;;12.00;62.60;;;;;;5115843;28;19926;-71
2022/09/22 02:30:55;;;;;;;;;;;12.00;62.50;;;;;;5115407;28;19910;-71
2022/09/22 02:33:22;;;;;;;;;;;12.00;62.30;;;;;;5132746;27;19915;-71
2022/09/22 02:35:50;;;;;;;;;;;12.00;62.20;;;;;;5135928;27;19907;-71
2022/09/22 02:38:19;;;;;;;;;;;12.00;62.10;;;;;;5135832;27;19908;-71
2022/09/22 02:40:53;;;;;;;;;;;11.90;62.00;;;;;;5117447;27;19911;-71
2022/09/22 02:43:34;;;;;;;;;;;11.90;62.00;;;;;;5135779;27;19903;-71
2022/09/22 02:46:07;;;;;;;;;;;11.90;62.00;;;;;;5135699;27;20362;-71
2022/09/22 02:48:43;;;;;;;;;;;11.80;61.90;;;;;;5135501;27;19907;-71
2022/09/22 02:51:09;;;;;;;;;;;11.80;62.00;;;;;;5135612;27;19942;-71
2022/09/22 02:53:35;;;;;;;;;;;11.80;62.00;;;;;;5135609;27;19947;-71
2022/09/22 02:56:02;;;;;;;;;;;11.80;62.20;;;;;;5135506;27;19907;-71
2022/09/22 02:58:28;;;;;;;;;;;11.80;62.50;;;;;;5135304;27;19907;-71
2022/09/22 03:00:53;;;;;;;;;;;11.70;62.60;;;;;;5135450;27;19997;-71
2022/09/22 03:03:19;;;;;;;;;;;11.70;62.70;;;;;;5116942;27;19899;-71
2022/09/22 03:05:44;;;;;;;;;;;11.70;62.90;;;;;;5117079;27;19903;-71
2022/09/22 03:08:10;;;;;;;;;;;11.70;63.10;;;;;;5135313;27;20266;-71
2022/09/22 03:10:36;;;;;;;;;;;11.70;62.90;;;;;;5116851;27;19903;-71
2022/09/22 03:13:01;;;;;;;;;;;11.70;62.70;;;;;;5135033;27;20409;-71
2022/09/22 03:15:27;;;;;;;;;;;11.60;62.70;;;;;;5135087;27;19900;-71
2022/09/22 03:17:52;;;;;;;;;;;11.60;62.70;;;;;;5135036;27;19947;-71
2022/09/22 03:20:18;;;;;;;;;;;11.60;62.70;;;;;;5115660;27;20272;-71
2022/09/22 03:22:44;;;;;;;;;;;11.60;62.70;;;;;;5135001;27;19995;-71
2022/09/22 03:25:10;;;;;;;;;;;11.60;62.70;;;;;;5134818;27;19956;-71
2022/09/22 03:27:36;;;;;;;;;;;11.50;62.80;;;;;;5135014;27;20373;-71
2022/09/22 03:30:03;;;;;;;;;;;11.50;62.90;;;;;;5134828;27;19910;-71
2022/09/22 03:32:29;;;;;;;;;;;11.60;63.90;;;;;;5134743;27;19911;-71
2022/09/22 03:34:55;;;;;;;;;;;11.60;63.20;;;;;;5116293;27;19911;-71
2022/09/22 03:37:21;;;;;;;;;;;11.60;63.30;;;;;;5134408;27;19911;-71
2022/09/22 03:39:47;;;;;;;;;;;11.60;63.40;;;;;;5116275;27;19948;-71
2022/09/22 03:42:13;;;;;;;;;;;11.60;63.50;;;;;;5134650;27;20278;-71
2022/09/22 03:44:38;;;;;;;;;;;11.60;63.40;;;;;;5134569;27;19919;-71
2022/09/22 03:47:04;;;;;;;;;;;11.60;63.80;;;;;;5116056;27;20470;-71
2022/09/22 03:49:30;;;;;;;;;;;11.70;63.50;;;;;;5134495;27;19903;-71
2022/09/22 03:51:56;;;;;;;;;;;11.70;63.50;;;;;;5119372;27;19921;-71
2022/09/22 03:54:22;;;;;;;;;;;11.70;63.50;;;;;;5155078;27;19938;-71
2022/09/22 03:56:47;;;;;;;;;;;11.60;63.60;;;;;;5152993;27;19969;-71
2022/09/22 03:59:13;;;;;;;;;;;11.60;63.80;;;;;;5135520;27;19903;-71
2022/09/22 04:01:39;;;;;;;;;;;11.60;63.90;;;;;;5154228;27;19930;-71
2022/09/22 04:04:05;;;;;;;;;;;11.50;64.10;;;;;;5126400;27;20354;-72
2022/09/22 04:06:30;;;;;;;;;;;11.50;64.20;;;;;;5115878;27;20354;-71
2022/09/22 04:08:56;;;;;;;;;;;11.50;64.40;;;;;;5115817;27;19952;-71
2022/09/22 04:11:23;;;;;;;;;;;11.50;64.60;;;;;;5134204;27;19928;-71
2022/09/22 04:13:49;;;;;;;;;;;11.50;64.70;;;;;;5134082;27;19952;-71
2022/09/22 04:16:14;;;;;;;;;;;11.40;64.80;;;;;;5115601;27;19997;-71
2022/09/22 04:18:40;;;;;;;;;;;11.40;65.00;;;;;;5134038;27;19907;-71
2022/09/22 04:21:06;;;;;;;;;;;11.50;65.10;;;;;;5134057;27;19955;-71
2022/09/22 04:23:32;;;;;;;;;;;11.50;65.10;;;;;;5133901;27;19903;-71
2022/09/22 04:25:58;;;;;;;;;;;11.50;65.10;;;;;;5133805;27;19956;-72
2022/09/22 04:28:24;;;;;;;;;;;11.50;65.10;;;;;;5115552;28;20358;-71
2022/09/22 04:30:49;;;;;;;;;;;11.50;64.90;;;;;;5133915;28;19927;-71
2022/09/22 04:33:15;;;;;;;;;;;11.50;64.90;;;;;;5115914;28;19928;-71
2022/09/22 04:35:41;;;;;;;;;;;11.50;64.80;;;;;;5117946;28;20345;-71
2022/09/22 04:38:06;;;;;;;;;;;11.50;64.80;;;;;;5116161;28;19939;-71
2022/09/22 04:40:32;;;;;;;;;;;11.50;64.70;;;;;;5117976;28;19998;-71
2022/09/22 04:42:58;;;;;;;;;;;11.50;64.70;;;;;;5117638;28;19911;-72
2022/09/22 04:45:23;;;;;;;;;;;11.50;64.70;;;;;;5116191;28;19939;-71
2022/09/22 04:47:50;;;;;;;;;;;11.50;64.70;;;;;;5117384;28;19904;-72
2022/09/22 04:50:17;;;;;;;;;;;11.50;64.70;;;;;;5117486;28;19911;-72
2022/09/22 04:52:46;;;;;;;;;;;11.50;64.70;;;;;;5117285;27;20384;-72
2022/09/22 04:55:12;;;;;;;;;;;11.50;64.60;;;;;;5117417;28;19911;-72
2022/09/22 04:57:38;;;;;;;;;;;11.40;64.50;;;;;;5117276;28;20366;-72
2022/09/22 05:00:04;;;;;;;;;;;11.40;64.40;;;;;;5117206;28;19910;-72
2022/09/22 05:02:29;;;;;;;;;;;11.40;64.50;;;;;;5115929;28;19911;-72
2022/09/22 05:04:55;;;;;;;;;;;11.40;65.40;;;;;;5117176;28;19904;-72
2022/09/22 05:07:21;;;;;;;;;;;11.40;64.60;;;;;;5117043;28;19904;-72
2022/09/22 05:09:47;;;;;;;;;;;11.30;64.60;;;;;;5115660;28;19939;-72
2022/09/22 05:12:12;;;;;;;;;;;11.30;64.60;;;;;;5115779;28;20018;-72
2022/09/22 05:14:38;;;;;;;;;;;11.30;64.50;;;;;;5115703;28;19987;-72
2022/09/22 05:17:04;;;;;;;;;;;11.30;64.60;;;;;;5116546;28;19912;-72
2022/09/22 05:19:29;;;;;;;;;;;11.30;64.60;;;;;;5116697;28;19903;-72
2022/09/22 05:21:55;;;;;;;;;;;11.20;64.60;;;;;;5116622;28;20006;-72
2022/09/22 05:24:21;;;;;;;;;;;11.20;64.70;;;;;;5115423;28;19957;-72
2022/09/22 05:26:47;;;;;;;;;;;11.30;65.00;;;;;;5116720;28;20290;-72
2022/09/22 05:29:12;;;;;;;;;;;11.30;65.20;;;;;;5115440;28;19904;-72
2022/09/22 05:31:38;;;;;;;;;;;11.30;65.40;;;;;;5119201;27;19916;-72
2022/09/22 05:34:03;;;;;;;;;;;11.40;65.60;;;;;;5137077;27;19903;-72
2022/09/22 05:36:29;;;;;;;;;;;11.40;65.70;;;;;;5118564;27;19904;-72
2022/09/22 05:38:55;;;;;;;;;;;11.50;65.70;;;;;;5118565;27;20259;-72
2022/09/22 05:41:20;;;;;;;;;;;11.50;65.60;;;;;;5136837;27;19908;-72
2022/09/22 05:43:46;;;;;;;;;;;11.60;65.70;;;;;;5117684;27;20323;-72
2022/09/22 05:46:11;;;;;;;;;;;11.60;65.70;;;;;;5137103;27;20409;-72
2022/09/22 05:48:37;;;;;;;;;;;11.60;65.80;;;;;;5136842;27;19903;-73
2022/09/22 05:51:03;;;;;;;;;;;11.70;66.00;;;;;;5144886;27;20019;-73
2022/09/22 05:53:28;;;;;;;;;;;11.70;66.10;;;;;;5157559;27;19994;-73
2022/09/22 05:55:55;;;;;;;;;;;11.80;66.20;;;;;;5157543;27;20338;-73
2022/09/22 05:58:21;;;;;;;;;;;11.90;66.20;;;;;;5138745;27;19907;-73
2022/09/22 06:00:47;;;;;;;;;;;12.00;66.30;;;;;;5157456;27;19981;-73
2022/09/22 06:03:13;;;;;;;;;;;12.10;66.30;;;;;;5138823;27;19930;-73
2022/09/22 06:05:38;;;;;;;;;;;12.20;66.40;;;;;;5156449;27;19930;-73
2022/09/22 06:08:05;;;;;;;;;;;12.30;66.50;;;;;;5147022;27;19910;-73
2022/09/22 06:10:35;;;;;;;;;;;12.40;66.50;;;;;;5136298;27;19903;-73
2022/09/22 06:13:01;;;;;;;;;;;12.50;66.40;;;;;;5136318;27;19950;-73
2022/09/22 06:15:27;;;;;;;;;;;12.60;66.30;;;;;;5117904;27;19948;-73
2022/09/22 06:17:53;;;;;;;;;;;12.70;66.10;;;;;;5136299;27;19907;-73
2022/09/22 06:20:19;;;;;;;;;;;12.80;65.80;;;;;;5136443;27;19903;-73
2022/09/22 06:22:44;;;;;;;;;;;12.90;65.60;;;;;;5117908;27;19956;-73
2022/09/22 06:25:10;;;;;;;;;;;12.90;65.40;;;;;;5136268;27;19910;-73
2022/09/22 06:27:36;;;;;;;;;;;13.00;65.40;;;;;;5136175;27;20353;-73
2022/09/22 06:30:02;;;;;;;;;;;13.10;65.40;;;;;;5135854;27;19903;-73
2022/09/22 06:32:28;;;;;;;;;;;13.20;65.40;;;;;;5135797;27;19911;-73
2022/09/22 06:34:54;;;;;;;;;;;13.30;65.30;;;;;;5135771;27;19998;-72
2022/09/22 06:37:21;;;;;;;;;;;13.40;65.20;;;;;;5135885;27;19907;-73
2022/09/22 06:39:46;;;;;;;;;;;13.50;65.00;;;;;;5135919;27;19939;-73
2022/09/22 06:42:16;;;;;;;;;;;13.50;64.80;;;;;;5135900;27;19980;-73
2022/09/22 06:44:43;;;;;;;;;;;13.60;64.70;;;;;;5135854;27;19903;-73
2022/09/22 06:47:09;;;;;;;;;;;13.70;64.90;;;;;;5135708;27;20393;-71
2022/09/22 06:49:34;;;;;;;;;;;13.70;64.50;;;;;;5117340;27;19907;-71
2022/09/22 06:52:00;;;;;;;;;;;13.80;64.60;;;;;;5117243;27;20353;-71
2022/09/22 06:54:26;;;;;;;;;;;13.90;64.60;;;;;;5135492;27;19911;-71
2022/09/22 06:56:51;;;;;;;;;;;14.00;64.60;;;;;;5116901;27;19907;-71
2022/09/22 06:59:17;;;;;;;;;;;14.10;64.60;;;;;;5116981;27;19957;-71
2022/09/22 07:01:44;;;;;;;;;;;14.30;64.60;;;;;;5135436;27;19903;-71
2022/09/22 07:04:11;;;;;;;;;;;14.40;64.60;;;;;;5135384;27;19903;-71
2022/09/22 07:06:36;;;;;;;;;;;14.60;64.40;;;;;;5135285;27;19908;-71
2022/09/22 07:09:03;;;;;;;;;;;14.70;64.10;;;;;;5135321;27;19910;-71
2022/09/22 07:11:29;;;;;;;;;;;14.90;63.90;;;;;;5135235;27;20365;-71
2022/09/22 07:13:55;;;;;;;;;;;15.00;63.50;;;;;;5116687;27;19910;-71
2022/09/22 07:16:23;;;;;;;;;;;15.10;63.20;;;;;;5134972;27;19910;-71
2022/09/22 07:18:49;;;;;;;;;;;15.30;63.20;;;;;;5116529;27;20281;-72
2022/09/22 07:21:19;;;;;;;;;;;15.40;63.00;;;;;;5134903;27;20381;-72
2022/09/22 07:23:45;;;;;;;;;;;15.50;62.40;;;;;;5134924;27;19903;-71
2022/09/22 07:26:12;;;;;;;;;;;15.60;61.80;;;;;;5134853;27;19910;-71
2022/09/22 07:28:38;;;;;;;;;;;15.60;61.20;;;;;;5134889;27;20226;-71
2022/09/22 07:31:05;;;;;;;;;;;15.60;61.00;;;;;;5134849;27;20255;-72
2022/09/22 07:33:31;;;;;;;;;;;15.70;60.90;;;;;;5134523;27;19922;-71
2022/09/22 07:36:07;;;;;;;;;;;15.70;60.70;;;;;;5134696;27;19903;-72
2022/09/22 07:38:35;;;;;;;;;;;15.70;60.70;;;;;;5136937;27;19919;-72
2022/09/22 07:41:02;;;;;;;;;;;15.70;60.30;;;;;;5136376;27;19910;-71
2022/09/22 07:43:28;;;;;;;;;;;15.80;60.20;;;;;;5155378;27;19946;-72
2022/09/22 07:45:56;;;;;;;;;;;15.80;60.10;;;;;;5136654;27;19907;-71
2022/09/22 07:51:08;;;;;;;;;;;15.80;59.90;;;;;;5155569;27;19910;-72
2022/09/22 07:53:34;;;;;;;;;;;15.90;59.90;;;;;;5155175;27;19903;-72
2022/09/22 07:56:11;;;;;;;;;;;16.00;59.90;;;;;;5155208;27;20349;-72
2022/09/22 07:58:50;;;;;;;;;;;16.00;59.80;;;;;;5136530;27;20289;-72
2022/09/22 08:01:16;;;;;;;;;;;16.10;59.70;;;;;;5155016;27;19910;-72
2022/09/22 08:03:42;;;;;;;;;;;16.20;59.60;;;;;;5154903;27;19903;-72
2022/09/22 08:06:10;;;;;;;;;;;16.30;59.50;;;;;;5144242;27;19914;-71
2022/09/22 08:08:36;;;;;;;;;;;16.40;59.70;;;;;;5148023;27;19903;-72
2022/09/22 08:11:06;;;;;;;;;;;16.50;59.80;;;;;;5154113;27;19903;-72
2022/09/22 08:13:33;;;;;;;;;;;16.60;59.40;;;;;;5137924;27;19946;-72
2022/09/22 08:15:59;;;;;;;;;;;16.70;59.20;;;;;;5152886;27;19907;-72
2022/09/22 08:18:26;;;;;;;;;;;16.80;59.10;;;;;;5129072;27;19921;-72
2022/09/22 08:20:51;;;;;;;;;;;16.90;58.90;;;;;;5154531;27;19907;-72
2022/09/22 08:23:17;;;;;;;;;;;17.00;58.90;;;;;;5134739;27;20410;-72
2022/09/22 08:25:42;;;;;;;;;;;17.00;58.70;;;;;;5120890;27;19907;-72
2022/09/22 08:28:09;;;;;;;;;;;17.10;58.60;;;;;;5154274;27;19930;-72
2022/09/22 08:30:35;;;;;;;;;;;17.20;58.60;;;;;;5154274;27;19962;-72
2022/09/22 08:33:00;;;;;;;;;;;17.30;58.30;;;;;;5135640;27;19922;-72
2022/09/22 08:35:26;;;;;;;;;;;17.30;58.00;;;;;;5135630;27;19907;-72
2022/09/22 08:37:52;;;;;;;;;;;17.40;58.50;;;;;;5154399;27;20395;-72
2022/09/22 08:40:22;;;;;;;;;;;17.50;57.80;;;;;;5154181;27;19907;-72
2022/09/22 08:42:54;;;;;;;;;;;17.50;57.70;;;;;;5154522;27;19997;-72
2022/09/22 08:45:31;;;;;;;;;;;17.60;57.70;;;;;;5153055;27;20268;-72
2022/09/22 08:53:34;;;;;;;;;;;17.80;57.30;;;;;;5135514;27;19926;-72
2022/09/22 08:56:04;;;;;;;;;;;17.80;57.10;;;;;;5141688;27;19911;-72
2022/09/22 08:58:47;;;;;;;;;;;17.90;57.00;;;;;;5153983;27;19915;-72
2022/09/22 09:01:24;;;;;;;;;;;17.90;56.70;;;;;;5123805;27;19951;-72
2022/09/22 09:04:09;;;;;;;;;;;18.00;56.70;;;;;;5154722;27;20428;-72
2022/09/22 09:06:35;;;;;;;;;;;18.00;56.50;;;;;;5153065;27;19947;-72
2022/09/22 09:09:08;;;;;;;;;;;18.10;56.30;;;;;;5153972;27;19907;-72
2022/09/22 09:11:34;;;;;;;;;;;18.20;56.40;;;;;;5135495;27;19952;-72
2022/09/22 09:14:05;;;;;;;;;;;18.30;56.40;;;;;;5153967;27;19902;-72
2022/09/22 09:16:46;;;;;;;;;;;18.30;56.30;;;;;;5152401;27;19907;-72
2022/09/22 09:19:11;;;;;;;;;;;18.40;56.10;;;;;;5136816;27;20322;-72
2022/09/22 09:21:39;;;;;;;;;;;18.50;56.20;;;;;;5157872;27;19990;-72
2022/09/22 09:24:08;;;;;;;;;;;18.60;56.10;;;;;;5139214;27;20377;-72
2022/09/22 09:26:34;;;;;;;;;;;18.70;56.00;;;;;;5157726;27;19903;-72
2022/09/22 09:29:02;;;;;;;;;;;18.90;55.90;;;;;;5157579;27;19911;-72
2022/09/22 09:31:28;;;;;;;;;;;19.00;55.70;;;;;;5140357;27;19907;-73
2022/09/22 09:34:01;;;;;;;;;;;19.20;55.40;;;;;;5157460;27;20026;-72
2022/09/22 09:36:33;;;;;;;;;;;19.30;55.20;;;;;;5157474;27;19963;-72
2022/09/22 09:39:01;;;;;;;;;;;19.40;55.30;;;;;;5157462;27;19965;-72
2022/09/22 09:41:30;;;;;;;;;;;19.60;55.30;;;;;;5157325;27;19914;-72
2022/09/22 09:43:56;;;;;;;;;;;19.70;54.70;;;;;;5157244;27;19903;-72
2022/09/22 09:46:40;;;;;;;;;;;19.90;54.40;;;;;;5156561;27;19907;-72
2022/09/22 09:49:13;;;;;;;;;;;19.90;53.80;;;;;;5138427;27;19903;-72
2022/09/22 09:51:42;;;;;;;;;;;20.00;53.50;;;;;;5157105;27;19926;-72
2022/09/22 09:54:11;;;;;;;;;;;20.20;53.30;;;;;;5157059;27;20357;-72
2022/09/22 09:56:57;;;;;;;;;;;20.20;53.60;;;;;;5157177;27;20274;-73
2022/09/22 10:02:13;;;;;;;;;;;20.30;52.90;;;;;;5146180;27;20266;-72
2022/09/22 10:04:38;;;;;;;;;;;20.30;52.30;;;;;;5156915;27;19902;-72
2022/09/22 10:07:15;;;;;;;;;;;20.30;52.10;;;;;;5156982;27;19963;-73
2022/09/22 10:09:41;;;;;;;;;;;20.30;52.30;;;;;;5156910;27;19903;-73
2022/09/22 10:12:19;;;;;;;;;;;20.40;52.20;;;;;;5138227;27;20273;-73
2022/09/22 10:14:49;;;;;;;;;;;20.40;52.20;;;;;;5145944;27;20381;-72
2022/09/22 10:17:19;;;;;;;;;;;20.50;52.20;;;;;;5135701;27;20381;-73
2022/09/22 10:19:44;;;;;;;;;;;20.50;51.80;;;;;;5156812;27;19903;-73
2022/09/22 10:22:16;;;;;;;;;;;20.50;51.60;;;;;;5156521;27;20456;-72
2022/09/22 10:24:52;;;;;;;;;;;20.60;51.50;;;;;;5156558;27;19968;-72
2022/09/22 10:27:22;;;;;;;;;;;20.60;51.20;;;;;;5156395;27;19899;-73
2022/09/22 10:30:07;;;;;;;;;;;20.60;51.20;;;;;;5156144;27;19911;-73
2022/09/22 10:32:32;;;;;;;;;;;20.60;51.10;;;;;;5156206;27;19915;-72
2022/09/22 10:34:59;;;;;;;;;;;20.60;50.70;;;;;;5156334;27;19903;-72
2022/09/22 10:37:25;;;;;;;;;;;20.60;50.70;;;;;;5156210;27;19910;-72
2022/09/22 10:39:52;;;;;;;;;;;20.60;50.70;;;;;;5156330;27;19910;-73
2022/09/22 10:42:18;;;;;;;;;;;20.60;50.70;;;;;;5137626;27;19899;-73
2022/09/22 10:44:43;;;;;;;;;;;20.60;51.00;;;;;;5156105;27;19903;-72
2022/09/22 10:47:28;;;;;;;;;;;20.70;51.10;;;;;;5120430;27;19973;-73
2022/09/22 10:49:57;;;;;;;;;;;20.70;51.10;;;;;;5156147;27;19903;-72
2022/09/22 10:52:29;;;;;;;;;;;20.80;50.70;;;;;;5155915;27;19959;-72
2022/09/22 10:54:55;;;;;;;;;;;20.90;50.60;;;;;;5155875;27;19946;-73
2022/09/22 10:57:28;;;;;;;;;;;21.10;50.50;;;;;;5137204;27;19938;-73
2022/09/22 11:00:02;;;;;;;;;;;21.20;50.10;;;;;;5151967;27;19907;-73
2022/09/22 11:02:28;;;;;;;;;;;21.40;50.00;;;;;;5147156;27;19990;-73
2022/09/22 11:05:06;;;;;;;;;;;21.50;49.60;;;;;;5137215;27;19946;-73
2022/09/22 11:13:15;;;;;;;;;;;21.80;48.80;;;;;;5147276;27;19998;-73
2022/09/22 11:16:04;;;;;;;;;;;21.90;48.40;;;;;;5154707;27;19960;-73
2022/09/22 11:18:36;;;;;;;;;;;21.90;48.10;;;;;;5141487;27;19959;-73
2022/09/22 11:21:04;;;;;;;;;;;21.90;47.80;;;;;;5136940;27;19910;-72
2022/09/22 11:23:48;;;;;;;;;;;21.90;47.40;;;;;;5138467;27;19903;-73
2022/09/22 11:26:23;;;;;;;;;;;21.90;47.40;;;;;;5155281;27;19903;-73
2022/09/22 11:28:57;;;;;;;;;;;21.90;46.80;;;;;;5136808;27;20373;-73
2022/09/22 11:31:46;;;;;;;;;;;21.80;46.80;;;;;;5154908;27;20350;-73
2022/09/22 11:34:30;;;;;;;;;;;21.60;46.30;;;;;;5106683;27;19903;-73
2022/09/22 11:36:56;;;;;;;;;;;21.50;46.50;;;;;;5155047;27;19997;-73
2022/09/22 11:39:27;;;;;;;;;;;21.30;46.50;;;;;;5136368;27;20261;-73
2022/09/22 11:42:07;;;;;;;;;;;21.20;46.20;;;;;;5154370;27;19998;-73
2022/09/22 11:44:42;;;;;;;;;;;21.00;46.40;;;;;;5154944;27;19902;-73
2022/09/22 11:47:27;;;;;;;;;;;20.80;46.50;;;;;;5153810;27;19961;-73
2022/09/22 11:49:59;;;;;;;;;;;20.70;46.60;;;;;;5136627;27;19935;-72
2022/09/22 11:52:31;;;;;;;;;;;20.60;46.70;;;;;;5154767;27;19903;-72
2022/09/22 11:55:25;;;;;;;;;;;20.50;46.50;;;;;;5154852;27;19906;-73
2022/09/22 11:57:54;;;;;;;;;;;20.50;46.60;;;;;;5064737;27;19947;-73
2022/09/22 12:00:20;;;;;;;;;;;20.40;46.90;;;;;;5139419;27;19903;-73
2022/09/22 12:02:57;;;;;;;;;;;20.50;47.20;;;;;;5148548;27;20349;-73
2022/09/22 12:05:43;;;;;;;;;;;20.50;47.20;;;;;;5154565;27;20361;-73
2022/09/22 12:08:17;;;;;;;;;;;20.60;47.40;;;;;;5153804;27;20373;-72
2022/09/22 12:10:43;;;;;;;;;;;20.80;47.70;;;;;;5154269;27;19903;-73
2022/09/22 12:13:19;;;;;;;;;;;21.00;47.90;;;;;;5133128;27;19949;-72
2022/09/22 12:16:04;;;;;;;;;;;21.20;48.10;;;;;;5149621;27;19909;-73
2022/09/22 12:18:31;;;;;;;;;;;21.40;47.80;;;;;;5145917;27;19922;-73
2022/09/22 12:21:02;;;;;;;;;;;21.70;47.60;;;;;;5154374;27;19910;-73
2022/09/22 12:23:41;;;;;;;;;;;21.90;47.60;;;;;;5154244;27;19911;-73
2022/09/22 12:26:08;;;;;;;;;;;22.10;46.80;;;;;;5154332;27;19903;-73
2022/09/22 12:28:46;;;;;;;;;;;22.30;46.40;;;;;;5154639;27;19903;-73
2022/09/22 12:31:14;;;;;;;;;;;22.40;45.80;;;;;;5154060;27;19903;-73
2022/09/22 12:33:50;;;;;;;;;;;22.50;45.70;;;;;;5154187;27;19915;-73
2022/09/22 12:36:27;;;;;;;;;;;22.50;45.60;;;;;;5154197;27;20222;-73
2022/09/22 12:39:05;;;;;;;;;;;22.60;45.40;;;;;;5135614;27;20052;-73
2022/09/22 12:41:31;;;;;;;;;;;22.60;45.00;;;;;;5119134;27;20337;-73
2022/09/22 12:44:05;;;;;;;;;;;22.60;44.60;;;;;;5135655;27;19981;-73
2022/09/22 12:46:31;;;;;;;;;;;22.60;44.10;;;;;;5142657;27;19913;-73
2022/09/22 12:48:56;;;;;;;;;;;22.50;43.90;;;;;;5149603;27;19903;-73
2022/09/22 12:51:25;;;;;;;;;;;22.50;43.90;;;;;;5154233;27;19903;-73
2022/09/22 12:54:11;;;;;;;;;;;22.50;43.70;;;;;;5157271;27;20035;-73
2022/09/22 12:56:39;;;;;;;;;;;22.50;43.80;;;;;;5158169;27;19951;-73
2022/09/22 12:59:25;;;;;;;;;;;22.40;43.60;;;;;;5158018;27;20009;-73
2022/09/22 13:02:10;;;;;;;;;;;22.40;43.50;;;;;;5146260;27;19903;-73
2022/09/22 13:04:36;;;;;;;;;;;22.40;43.50;;;;;;5157864;27;20097;-73
2022/09/22 13:07:04;;;;;;;;;;;22.40;43.20;;;;;;5139439;27;19903;-73
2022/09/22 13:09:30;;;;;;;;;;;22.40;43.00;;;;;;5139005;27;19961;-73
2022/09/22 13:12:11;;;;;;;;;;;22.40;42.90;;;;;;5144820;27;19910;-73
2022/09/22 13:14:56;;;;;;;;;;;22.40;42.90;;;;;;5157925;27;19903;-73
2022/09/22 13:17:40;;;;;;;;;;;22.40;43.30;;;;;;5142311;27;19979;-73
2022/09/22 13:20:13;;;;;;;;;;;22.40;43.30;;;;;;5139187;27;19952;-72
2022/09/22 13:22:39;;;;;;;;;;;22.40;44.10;;;;;;5157870;27;19911;-72
2022/09/22 13:25:20;;;;;;;;;;;22.30;43.30;;;;;;5157721;27;20289;-73
2022/09/22 13:27:45;;;;;;;;;;;22.30;43.30;;;;;;5139170;27;19910;-74
2022/09/22 13:30:13;;;;;;;;;;;22.30;43.00;;;;;;5157462;27;19903;-72
2022/09/22 13:32:39;;;;;;;;;;;22.20;42.90;;;;;;5157290;27;19914;-74
2022/09/22 13:35:23;;;;;;;;;;;22.20;42.90;;;;;;5157431;27;19910;-73
2022/09/22 13:37:48;;;;;;;;;;;22.10;42.90;;;;;;5157357;27;19906;-74
2022/09/22 13:40:14;;;;;;;;;;;22.00;43.00;;;;;;5157387;27;19962;-73
2022/09/22 13:42:41;;;;;;;;;;;22.00;43.00;;;;;;5157562;27;20005;-73
2022/09/22 13:45:17;;;;;;;;;;;21.90;43.10;;;;;;5157223;27;19903;-73
2022/09/22 13:47:44;;;;;;;;;;;21.90;43.00;;;;;;5142243;27;19907;-73
2022/09/22 13:50:15;;;;;;;;;;;21.80;42.70;;;;;;5157172;27;19903;-74
2022/09/22 13:52:41;;;;;;;;;;;21.80;42.80;;;;;;5157225;27;19941;-73
2022/09/22 13:55:25;;;;;;;;;;;21.70;42.70;;;;;;5157051;27;19903;-73
2022/09/22 13:57:52;;;;;;;;;;;21.60;42.70;;;;;;5138386;27;19907;-73
2022/09/22 14:00:23;;;;;;;;;;;21.60;43.10;;;;;;5151714;27;19938;-73
2022/09/22 14:02:50;;;;;;;;;;;21.60;43.00;;;;;;5151315;27;20314;-73
2022/09/22 14:05:17;;;;;;;;;;;21.60;43.00;;;;;;5155698;27;19939;-74
2022/09/22 14:07:43;;;;;;;;;;;21.60;42.90;;;;;;5123405;27;20353;-74
2022/09/22 14:10:13;;;;;;;;;;;21.60;42.90;;;;;;5146431;27;19910;-73
2022/09/22 14:12:38;;;;;;;;;;;21.60;43.10;;;;;;5138060;27;19986;-73
2022/09/22 14:15:23;;;;;;;;;;;21.60;43.20;;;;;;5156704;27;19952;-73
2022/09/22 14:17:49;;;;;;;;;;;21.50;43.20;;;;;;5150329;27;19964;-73
2022/09/22 14:20:15;;;;;;;;;;;21.60;43.50;;;;;;5145954;27;20299;-74
2022/09/22 14:22:41;;;;;;;;;;;21.40;43.40;;;;;;5156498;27;19903;-74
2022/09/22 14:25:20;;;;;;;;;;;21.40;43.50;;;;;;5156488;27;19903;-74
2022/09/22 14:27:50;;;;;;;;;;;21.40;43.60;;;;;;5156469;27;19959;-73
2022/09/22 14:30:17;;;;;;;;;;;21.30;43.50;;;;;;5137584;27;20075;-73
2022/09/22 14:32:47;;;;;;;;;;;21.30;43.50;;;;;;5156253;27;19915;-72
2022/09/22 14:35:32;;;;;;;;;;;21.20;43.30;;;;;;5137637;27;19914;-72
2022/09/22 14:38:01;;;;;;;;;;;21.20;43.30;;;;;;5156268;27;19910;-73
2022/09/22 14:40:27;;;;;;;;;;;21.20;43.00;;;;;;5137523;27;19903;-73
2022/09/22 14:43:07;;;;;;;;;;;21.20;43.10;;;;;;5156060;27;19906;-73
2022/09/22 14:45:34;;;;;;;;;;;21.20;43.30;;;;;;5138007;27;19910;-73